sensor_id;sensor_type;location;lat;lon;timestamp;P1;durP1;ratioP1;P2;durP2;ratioP2
26530;SDS011;14201;43.188;24.160;2024-02-28T08:40:57;42.55;;;26.88;;
26530;SDS011;14201;43.188;24.160;2024-02-28T08:43:23;43.92;;;27.63;;
26530;SDS011;14201;43.188;24.160;2024-02-28T08:45:48;39.95;;;25.05;;
26530;SDS011;14201;43.188;24.160;2024-02-28T08:48:16;40.47;;;25.92;;
26530;SDS011;14201;43.188;24.160;2024-02-28T08:50:42;40.13;;;26.40;;
26530;SDS011;14201;43.188;24.160;2024-02-28T08:53:08;38.20;;;26.95;;
26530;SDS011;14201;43.188;24.160;2024-02-28T08:55:36;37.65;;;26.60;;
26530;SDS011;14201;43.188;24.160;2024-02-28T08:58:02;40.15;;;26.23;;
26530;SDS011;14201;43.188;24.160;2024-02-28T09:00:28;41.50;;;26.95;;
26530;SDS011;14201;43.188;24.160;2024-02-28T09:02:54;39.80;;;25.30;;
26530;SDS011;14201;43.188;24.160;2024-02-28T09:05:19;45.25;;;27.80;;
26530;SDS011;14201;43.188;24.160;2024-02-28T09:07:45;41.35;;;27.42;;
26530;SDS011;14201;43.188;24.160;2024-02-28T09:10:16;44.17;;;26.38;;
26530;SDS011;14201;43.188;24.160;2024-02-28T09:12:46;47.70;;;31.80;;
26530;SDS011;14201;43.188;24.160;2024-02-28T09:15:12;45.30;;;30.40;;
26530;SDS011;14201;43.188;24.160;2024-02-28T09:17:38;51.97;;;34.13;;
26530;SDS011;14201;43.188;24.160;2024-02-28T09:20:03;50.03;;;34.17;;
26530;SDS011;14201;43.188;24.160;2024-02-28T09:22:31;61.10;;;40.65;;
26530;SDS011;14201;43.188;24.160;2024-02-28T09:24:57;61.38;;;40.95;;
26530;SDS011;14201;43.188;24.160;2024-02-28T09:27:23;59.95;;;39.92;;
26530;SDS011;14201;43.188;24.160;2024-02-28T09:29:49;65.30;;;41.15;;
26530;SDS011;14201;43.188;24.160;2024-02-28T09:32:15;69.05;;;44.30;;
26530;SDS011;14201;43.188;24.160;2024-02-28T09:34:41;69.30;;;44.75;;
26530;SDS011;14201;43.188;24.160;2024-02-28T09:37:07;62.42;;;41.65;;
26530;SDS011;14201;43.188;24.160;2024-02-28T09:39:32;68.45;;;42.60;;
26530;SDS011;14201;43.188;24.160;2024-02-28T09:41:58;66.25;;;41.35;;
26530;SDS011;14201;43.188;24.160;2024-02-28T09:44:23;75.50;;;45.05;;
26530;SDS011;14201;43.188;24.160;2024-02-28T09:46:50;70.60;;;43.88;;
26530;SDS011;14201;43.188;24.160;2024-02-28T09:49:17;71.15;;;44.17;;
26530;SDS011;14201;43.188;24.160;2024-02-28T09:51:44;68.50;;;41.42;;
26530;SDS011;14201;43.188;24.160;2024-02-28T09:54:15;66.25;;;40.47;;
26530;SDS011;14201;43.188;24.160;2024-02-28T09:56:41;66.13;;;40.75;;
26530;SDS011;14201;43.188;24.160;2024-02-28T09:59:06;62.38;;;38.35;;
26530;SDS011;14201;43.188;24.160;2024-02-28T10:01:34;62.05;;;37.65;;
26530;SDS011;14201;43.188;24.160;2024-02-28T10:04:07;58.53;;;35.25;;
26530;SDS011;14201;43.188;24.160;2024-02-28T10:06:35;65.93;;;39.22;;
26530;SDS011;14201;43.188;24.160;2024-02-28T10:09:01;61.20;;;37.13;;
26530;SDS011;14201;43.188;24.160;2024-02-28T10:11:27;64.32;;;38.45;;
26530;SDS011;14201;43.188;24.160;2024-02-28T10:13:53;53.58;;;33.85;;
26530;SDS011;14201;43.188;24.160;2024-02-28T10:16:20;55.35;;;33.95;;
26530;SDS011;14201;43.188;24.160;2024-02-28T10:18:46;63.92;;;36.05;;
26530;SDS011;14201;43.188;24.160;2024-02-28T10:21:12;59.83;;;36.03;;
26530;SDS011;14201;43.188;24.160;2024-02-28T10:23:41;61.08;;;36.72;;
26530;SDS011;14201;43.188;24.160;2024-02-28T10:26:09;62.10;;;36.80;;
26530;SDS011;14201;43.188;24.160;2024-02-28T10:28:36;63.63;;;38.50;;
26530;SDS011;14201;43.188;24.160;2024-02-28T10:31:03;63.08;;;36.33;;
26530;SDS011;14201;43.188;24.160;2024-02-28T10:33:30;56.47;;;33.67;;
26530;SDS011;14201;43.188;24.160;2024-02-28T10:35:58;51.22;;;31.85;;
26530;SDS011;14201;43.188;24.160;2024-02-28T10:38:24;53.92;;;35.00;;
26530;SDS011;14201;43.188;24.160;2024-02-28T10:40:51;56.20;;;33.08;;
26530;SDS011;14201;43.188;24.160;2024-02-28T10:43:18;51.90;;;32.13;;
26530;SDS011;14201;43.188;24.160;2024-02-28T10:45:44;43.42;;;29.33;;
26530;SDS011;14201;43.188;24.160;2024-02-28T10:48:11;43.70;;;27.30;;
26530;SDS011;14201;43.188;24.160;2024-02-28T10:50:40;40.78;;;27.20;;
26530;SDS011;14201;43.188;24.160;2024-02-28T10:53:14;40.17;;;27.38;;
26530;SDS011;14201;43.188;24.160;2024-02-28T10:55:41;39.90;;;26.38;;
26530;SDS011;14201;43.188;24.160;2024-02-28T10:58:11;38.90;;;27.42;;
26530;SDS011;14201;43.188;24.160;2024-02-28T11:00:41;37.40;;;27.48;;
26530;SDS011;14201;43.188;24.160;2024-02-28T11:03:09;42.35;;;26.80;;
26530;SDS011;14201;43.188;24.160;2024-02-28T11:10:31;44.65;;;30.80;;
26530;SDS011;14201;43.188;24.160;2024-02-28T11:12:58;37.08;;;25.65;;
26530;SDS011;14201;43.188;24.160;2024-02-28T11:15:24;37.17;;;24.40;;
26530;SDS011;14201;43.188;24.160;2024-02-28T11:17:53;36.53;;;24.92;;
26530;SDS011;14201;43.188;24.160;2024-02-28T11:20:20;35.15;;;25.20;;
26530;SDS011;14201;43.188;24.160;2024-02-28T11:22:47;39.78;;;28.25;;
26530;SDS011;14201;43.188;24.160;2024-02-28T11:25:13;39.17;;;26.65;;
26530;SDS011;14201;43.188;24.160;2024-02-28T11:27:49;41.38;;;30.05;;
26530;SDS011;14201;43.188;24.160;2024-02-28T11:30:15;36.85;;;24.77;;
26530;SDS011;14201;43.188;24.160;2024-02-28T11:32:41;32.28;;;23.48;;
26530;SDS011;14201;43.188;24.160;2024-02-28T11:35:07;36.83;;;24.20;;
26530;SDS011;14201;43.188;24.160;2024-02-28T11:37:33;36.97;;;24.42;;
26530;SDS011;14201;43.188;24.160;2024-02-28T11:39:59;38.60;;;25.63;;
26530;SDS011;14201;43.188;24.160;2024-02-28T11:42:25;33.25;;;24.73;;
26530;SDS011;14201;43.188;24.160;2024-02-28T11:44:54;35.30;;;24.17;;
26530;SDS011;14201;43.188;24.160;2024-02-28T11:47:25;39.25;;;24.90;;
26530;SDS011;14201;43.188;24.160;2024-02-28T11:49:51;37.20;;;24.85;;
26530;SDS011;14201;43.188;24.160;2024-02-28T11:52:16;35.75;;;25.05;;
26530;SDS011;14201;43.188;24.160;2024-02-28T11:54:42;34.83;;;24.23;;
26530;SDS011;14201;43.188;24.160;2024-02-28T11:57:07;34.13;;;23.83;;
26530;SDS011;14201;43.188;24.160;2024-02-28T11:59:39;37.10;;;25.05;;
26530;SDS011;14201;43.188;24.160;2024-02-28T12:02:11;35.88;;;23.52;;
26530;SDS011;14201;43.188;24.160;2024-02-28T12:04:39;34.58;;;22.95;;
26530;SDS011;14201;43.188;24.160;2024-02-28T12:07:08;33.53;;;23.00;;
26530;SDS011;14201;43.188;24.160;2024-02-28T12:09:34;31.58;;;23.33;;
26530;SDS011;14201;43.188;24.160;2024-02-28T12:12:02;33.58;;;23.23;;
26530;SDS011;14201;43.188;24.160;2024-02-28T12:14:31;34.25;;;22.75;;
26530;SDS011;14201;43.188;24.160;2024-02-28T12:16:58;35.95;;;23.67;;
26530;SDS011;14201;43.188;24.160;2024-02-28T12:19:24;33.13;;;21.80;;
26530;SDS011;14201;43.188;24.160;2024-02-28T12:21:49;28.10;;;19.90;;
26530;SDS011;14201;43.188;24.160;2024-02-28T12:24:15;27.17;;;19.30;;
26530;SDS011;14201;43.188;24.160;2024-02-28T12:26:41;27.30;;;18.38;;
26530;SDS011;14201;43.188;24.160;2024-02-28T12:29:07;27.30;;;18.90;;
26530;SDS011;14201;43.188;24.160;2024-02-28T12:31:35;27.33;;;18.42;;
26530;SDS011;14201;43.188;24.160;2024-02-28T12:34:01;29.48;;;18.38;;
26530;SDS011;14201;43.188;24.160;2024-02-28T12:36:29;28.25;;;17.85;;
26530;SDS011;14201;43.188;24.160;2024-02-28T12:38:56;27.17;;;19.50;;
26530;SDS011;14201;43.188;24.160;2024-02-28T12:41:22;27.23;;;18.73;;
26530;SDS011;14201;43.188;24.160;2024-02-28T12:43:48;28.40;;;18.70;;
26530;SDS011;14201;43.188;24.160;2024-02-28T12:46:15;29.02;;;19.02;;
26530;SDS011;14201;43.188;24.160;2024-02-28T12:48:41;26.73;;;18.58;;
26530;SDS011;14201;43.188;24.160;2024-02-28T12:51:06;30.67;;;19.42;;
26530;SDS011;14201;43.188;24.160;2024-02-28T12:53:36;26.83;;;17.95;;
26530;SDS011;14201;43.188;24.160;2024-02-28T12:56:01;27.95;;;18.17;;
26530;SDS011;14201;43.188;24.160;2024-02-28T12:58:27;27.60;;;19.08;;
26530;SDS011;14201;43.188;24.160;2024-02-28T13:00:53;31.35;;;18.80;;
26530;SDS011;14201;43.188;24.160;2024-02-28T13:03:19;26.55;;;18.08;;
26530;SDS011;14201;43.188;24.160;2024-02-28T13:05:44;29.58;;;19.17;;
26530;SDS011;14201;43.188;24.160;2024-02-28T13:08:10;26.88;;;18.35;;
26530;SDS011;14201;43.188;24.160;2024-02-28T13:10:36;28.10;;;18.27;;
26530;SDS011;14201;43.188;24.160;2024-02-28T17:06:32;24.25;;;15.23;;
26530;SDS011;14201;43.188;24.160;2024-02-28T18:02:39;26.63;;;14.32;;
26530;SDS011;14201;43.188;24.160;2024-02-28T18:05:09;26.77;;;15.15;;
26530;SDS011;14201;43.188;24.160;2024-02-28T18:07:34;27.98;;;13.82;;
26530;SDS011;14201;43.188;24.160;2024-02-28T18:10:00;26.67;;;14.95;;
26530;SDS011;14201;43.188;24.160;2024-02-28T18:12:26;26.80;;;17.00;;
26530;SDS011;14201;43.188;24.160;2024-02-28T18:14:53;31.35;;;15.95;;
26530;SDS011;14201;43.188;24.160;2024-02-28T18:17:18;26.85;;;16.05;;
26530;SDS011;14201;43.188;24.160;2024-02-28T18:19:45;31.48;;;17.30;;
26530;SDS011;14201;43.188;24.160;2024-02-28T18:22:11;28.05;;;15.30;;
26530;SDS011;14201;43.188;24.160;2024-02-28T18:24:37;25.83;;;15.88;;
26530;SDS011;14201;43.188;24.160;2024-02-28T18:27:03;31.30;;;17.50;;
26530;SDS011;14201;43.188;24.160;2024-02-28T18:29:34;32.22;;;17.90;;
26530;SDS011;14201;43.188;24.160;2024-02-28T18:32:01;33.25;;;19.08;;
26530;SDS011;14201;43.188;24.160;2024-02-28T18:34:27;25.92;;;14.43;;
26530;SDS011;14201;43.188;24.160;2024-02-28T18:36:54;31.98;;;16.70;;
26530;SDS011;14201;43.188;24.160;2024-02-28T18:39:21;29.30;;;17.15;;
26530;SDS011;14201;43.188;24.160;2024-02-28T18:41:46;30.45;;;17.52;;
26530;SDS011;14201;43.188;24.160;2024-02-28T18:44:15;28.70;;;18.15;;
26530;SDS011;14201;43.188;24.160;2024-02-28T18:46:41;28.77;;;18.30;;
26530;SDS011;14201;43.188;24.160;2024-02-28T18:49:06;35.28;;;18.95;;
26530;SDS011;14201;43.188;24.160;2024-02-28T18:51:33;28.60;;;18.88;;
26530;SDS011;14201;43.188;24.160;2024-02-28T18:53:59;31.40;;;18.20;;
26530;SDS011;14201;43.188;24.160;2024-02-28T18:56:25;32.20;;;18.40;;
26530;SDS011;14201;43.188;24.160;2024-02-28T18:58:50;35.50;;;19.63;;
26530;SDS011;14201;43.188;24.160;2024-02-28T19:01:17;32.22;;;18.25;;
26530;SDS011;14201;43.188;24.160;2024-02-28T19:03:42;32.10;;;19.00;;
26530;SDS011;14201;43.188;24.160;2024-02-28T19:06:08;29.55;;;19.35;;
26530;SDS011;14201;43.188;24.160;2024-02-28T19:08:36;35.17;;;19.85;;
26530;SDS011;14201;43.188;24.160;2024-02-28T19:11:02;33.83;;;18.60;;
26530;SDS011;14201;43.188;24.160;2024-02-28T19:13:28;33.75;;;19.08;;
26530;SDS011;14201;43.188;24.160;2024-02-28T19:15:55;31.33;;;18.15;;
26530;SDS011;14201;43.188;24.160;2024-02-28T19:18:21;28.33;;;16.90;;
26530;SDS011;14201;43.188;24.160;2024-02-28T19:20:47;30.50;;;17.95;;
26530;SDS011;14201;43.188;24.160;2024-02-28T19:23:13;30.27;;;17.58;;
26530;SDS011;14201;43.188;24.160;2024-02-28T19:25:39;28.83;;;18.02;;
26530;SDS011;14201;43.188;24.160;2024-02-28T19:28:05;39.15;;;19.40;;
26530;SDS011;14201;43.188;24.160;2024-02-28T19:30:31;35.85;;;19.60;;
26530;SDS011;14201;43.188;24.160;2024-02-28T19:32:57;35.80;;;19.75;;
26530;SDS011;14201;43.188;24.160;2024-02-28T19:35:22;29.27;;;17.50;;
26530;SDS011;14201;43.188;24.160;2024-02-28T19:37:48;32.47;;;19.38;;
26530;SDS011;14201;43.188;24.160;2024-02-28T19:40:14;33.85;;;19.17;;
26530;SDS011;14201;43.188;24.160;2024-02-28T19:42:40;29.55;;;18.95;;
26530;SDS011;14201;43.188;24.160;2024-02-28T19:45:06;31.65;;;18.88;;
26530;SDS011;14201;43.188;24.160;2024-02-28T19:47:32;35.40;;;19.80;;
26530;SDS011;14201;43.188;24.160;2024-02-28T19:49:58;31.50;;;19.30;;
26530;SDS011;14201;43.188;24.160;2024-02-28T19:52:25;34.00;;;20.13;;
26530;SDS011;14201;43.188;24.160;2024-02-28T19:54:51;33.65;;;20.00;;
26530;SDS011;14201;43.188;24.160;2024-02-28T19:57:17;26.52;;;15.70;;
26530;SDS011;14201;43.188;24.160;2024-02-28T19:59:45;26.13;;;17.02;;
26530;SDS011;14201;43.188;24.160;2024-02-28T20:02:11;29.17;;;18.83;;
26530;SDS011;14201;43.188;24.160;2024-02-28T20:04:37;30.63;;;18.00;;
26530;SDS011;14201;43.188;24.160;2024-02-28T20:07:03;33.47;;;19.35;;
26530;SDS011;14201;43.188;24.160;2024-02-28T20:09:29;32.97;;;18.27;;
26530;SDS011;14201;43.188;24.160;2024-02-28T20:12:02;28.95;;;16.50;;
26530;SDS011;14201;43.188;24.160;2024-02-28T20:14:32;29.60;;;16.90;;
26530;SDS011;14201;43.188;24.160;2024-02-28T20:16:58;33.85;;;20.70;;
26530;SDS011;14201;43.188;24.160;2024-02-28T20:19:26;34.38;;;19.17;;
26530;SDS011;14201;43.188;24.160;2024-02-28T20:21:52;31.50;;;18.35;;
26530;SDS011;14201;43.188;24.160;2024-02-28T20:24:18;30.35;;;17.92;;
26530;SDS011;14201;43.188;24.160;2024-02-28T20:26:44;34.58;;;17.88;;
26530;SDS011;14201;43.188;24.160;2024-02-28T20:29:10;38.53;;;20.27;;
26530;SDS011;14201;43.188;24.160;2024-02-28T20:31:35;31.20;;;19.15;;
26530;SDS011;14201;43.188;24.160;2024-02-28T20:34:01;33.65;;;18.58;;
26530;SDS011;14201;43.188;24.160;2024-02-28T20:36:27;31.45;;;18.92;;
26530;SDS011;14201;43.188;24.160;2024-02-28T20:38:55;31.67;;;19.10;;
26530;SDS011;14201;43.188;24.160;2024-02-28T20:41:24;30.83;;;19.25;;
26530;SDS011;14201;43.188;24.160;2024-02-28T20:48:46;34.15;;;20.25;;
26530;SDS011;14201;43.188;24.160;2024-02-28T20:51:12;34.67;;;19.67;;
26530;SDS011;14201;43.188;24.160;2024-02-28T20:53:38;31.55;;;19.70;;
